createdAt,value
2022-12-27T00:01:31.389Z,1.38
2022-12-27T00:03:57.977Z,0.95
2022-12-27T00:06:26.166Z,1.42
2022-12-27T00:08:53.285Z,1.23
2022-12-27T00:11:23.162Z,0.88
2022-12-27T00:13:49.837Z,1.13
2022-12-27T00:16:19.520Z,0.80
2022-12-27T00:18:47.201Z,0.82
2022-12-27T00:21:14.112Z,1.35
2022-12-27T00:23:43.588Z,1.17
2022-12-27T00:26:16.409Z,1.30
2022-12-27T00:28:43.325Z,1.20
2022-12-27T00:31:10.264Z,1.05
2022-12-27T00:33:37.974Z,1.33
2022-12-27T00:36:06.758Z,1.10
2022-12-27T00:38:34.133Z,0.85
2022-12-27T00:41:00.603Z,1.65
2022-12-27T00:43:27.342Z,1.15
2022-12-27T00:45:54.081Z,1.35
2022-12-27T00:48:21.072Z,1.35
2022-12-27T00:50:47.754Z,0.98
2022-12-27T00:53:14.707Z,1.08
2022-12-27T00:55:44.919Z,1.70
2022-12-27T00:58:11.338Z,1.08
2022-12-27T01:00:37.769Z,0.85
2022-12-27T01:03:04.229Z,1.10
2022-12-27T01:05:30.885Z,1.13
2022-12-27T01:07:57.351Z,0.88
2022-12-27T01:10:23.871Z,1.17
2022-12-27T01:12:50.266Z,1.20
2022-12-27T01:15:16.682Z,1.40
2022-12-27T01:17:43.090Z,1.60
2022-12-27T01:20:09.710Z,1.42
2022-12-27T01:22:36.405Z,0.80
2022-12-27T01:25:02.871Z,0.80
2022-12-27T01:27:29.281Z,1.20
2022-12-27T01:29:55.735Z,1.00
2022-12-27T01:32:22.131Z,0.88
2022-12-27T01:34:49.849Z,0.90
2022-12-27T01:37:16.388Z,0.88
2022-12-27T01:39:43.028Z,1.73
2022-12-27T01:42:37.704Z,1.10
2022-12-27T01:45:27.344Z,0.90
2022-12-27T01:48:05.953Z,0.77
2022-12-27T01:50:36.618Z,1.08
2022-12-27T01:53:15.111Z,0.70
2022-12-27T01:55:41.451Z,1.00
2022-12-27T01:58:28.724Z,1.02
2022-12-27T02:00:56.463Z,0.90
2022-12-27T02:03:32.939Z,1.42
2022-12-27T02:06:02.203Z,1.15
2022-12-27T02:08:43.700Z,0.90
2022-12-27T02:11:10.734Z,1.08
2022-12-27T02:13:41.200Z,1.00
2022-12-27T02:16:16.800Z,0.93
2022-12-27T02:18:45.805Z,0.68
2022-12-27T02:21:52.836Z,1.02
2022-12-27T02:24:44.771Z,1.27
2022-12-27T02:27:34.420Z,1.30
2022-12-27T02:30:05.995Z,1.20
2022-12-27T02:32:49.430Z,1.00
2022-12-27T02:35:29.605Z,0.85
2022-12-27T02:38:03.289Z,1.02
2022-12-27T02:40:51.259Z,1.25
2022-12-27T02:43:36.636Z,1.30
2022-12-27T02:46:30.533Z,1.85
2022-12-27T02:49:17.160Z,1.63
2022-12-27T02:52:21.605Z,1.67
2022-12-27T02:54:59.291Z,1.02
2022-12-27T02:57:50.161Z,0.98
2022-12-27T03:00:38.361Z,1.13
2022-12-27T03:03:49.312Z,1.25
2022-12-27T03:06:42.624Z,1.42
2022-12-27T03:09:44.655Z,1.20
2022-12-27T03:12:43.524Z,1.13
2022-12-27T03:15:46.859Z,1.00
2022-12-27T03:18:22.852Z,1.80
2022-12-27T03:21:08.196Z,1.17
2022-12-27T03:23:55.597Z,1.20
2022-12-27T03:26:24.171Z,1.20
2022-12-27T03:29:10.531Z,1.45
2022-12-27T03:31:59.323Z,1.42
2022-12-27T03:34:31.813Z,1.20
2022-12-27T03:37:27.961Z,1.40
2022-12-27T03:40:22.416Z,1.48
2022-12-27T03:43:13.744Z,1.10
2022-12-27T03:46:35.974Z,1.63
2022-12-27T03:49:15.699Z,1.42
2022-12-27T03:52:03.754Z,1.58
2022-12-27T03:54:33.671Z,1.38
2022-12-27T03:57:03.722Z,1.40
2022-12-27T03:59:30.337Z,1.58
2022-12-27T04:01:58.865Z,1.40
2022-12-27T04:04:25.385Z,1.25
2022-12-27T04:06:51.881Z,1.35
2022-12-27T04:09:36.797Z,2.50
2022-12-27T04:12:22.162Z,1.60
2022-12-27T04:15:07.700Z,1.27
2022-12-27T04:17:52.405Z,1.25
2022-12-27T04:20:38.318Z,1.60
2022-12-27T04:23:23.609Z,1.00
2022-12-27T04:26:08.525Z,1.30
2022-12-27T04:28:53.513Z,1.38
2022-12-27T04:31:38.941Z,1.00
2022-12-27T04:34:24.230Z,1.10
2022-12-27T04:36:50.770Z,1.40
2022-12-27T04:39:17.361Z,1.35
2022-12-27T04:42:03.194Z,1.25
2022-12-27T04:44:48.182Z,1.50
2022-12-27T04:47:35.904Z,1.27
2022-12-27T04:50:22.230Z,1.30
2022-12-27T04:53:07.627Z,1.20
2022-12-27T04:55:34.052Z,1.20
2022-12-27T04:58:01.388Z,1.38
2022-12-27T05:00:49.358Z,1.15
2022-12-27T05:03:20.806Z,1.05
2022-12-27T05:05:49.785Z,1.13
2022-12-27T05:08:37.338Z,1.00
2022-12-27T05:11:22.455Z,1.08
2022-12-27T05:14:00.749Z,1.30
2022-12-27T05:16:34.243Z,1.30
2022-12-27T05:19:00.756Z,1.00
2022-12-27T05:21:27.670Z,0.93
2022-12-27T05:24:12.889Z,1.08
2022-12-27T05:26:40.642Z,1.15
2022-12-27T05:29:08.232Z,1.20
2022-12-27T05:31:35.281Z,1.10
2022-12-27T05:34:02.020Z,1.10
2022-12-27T05:36:28.541Z,0.85
2022-12-27T05:38:54.941Z,1.10
2022-12-27T05:41:21.385Z,0.98
2022-12-27T05:43:48.022Z,1.00
2022-12-27T05:46:17.513Z,0.98
2022-12-27T05:48:44.171Z,1.10
2022-12-27T05:51:16.533Z,1.35
2022-12-27T05:53:43.394Z,1.15
2022-12-27T05:56:14.545Z,0.80
2022-12-27T05:58:41.225Z,0.65
2022-12-27T06:01:10.553Z,0.98
2022-12-27T06:03:37.250Z,1.00
2022-12-27T06:06:06.251Z,0.90
2022-12-27T06:08:34.424Z,0.55
2022-12-27T06:11:15.782Z,1.15
2022-12-27T06:13:44.439Z,1.20
2022-12-27T06:16:12.264Z,1.08
2022-12-27T06:18:40.756Z,0.90
2022-12-27T06:21:19.658Z,1.15
2022-12-27T06:23:47.044Z,1.20
2022-12-27T06:26:25.587Z,0.88
2022-12-27T06:28:52.520Z,0.90
2022-12-27T06:31:20.696Z,0.90
2022-12-27T06:33:49.015Z,0.80
2022-12-27T06:36:17.904Z,0.85
2022-12-27T06:38:45.040Z,1.10
2022-12-27T06:41:13.565Z,0.80
2022-12-27T06:43:40.817Z,0.98
2022-12-27T06:46:15.153Z,0.98
2022-12-27T06:48:44.244Z,1.20
2022-12-27T06:51:12.390Z,1.23
2022-12-27T06:53:38.976Z,1.00
2022-12-27T06:56:07.340Z,1.20
2022-12-27T06:58:34.235Z,1.05
2022-12-27T07:01:07.810Z,0.82
2022-12-27T07:03:34.453Z,0.90
2022-12-27T07:06:05.487Z,1.10
2022-12-27T07:08:32.474Z,1.00
2022-12-27T07:11:08.209Z,1.10
2022-12-27T07:13:36.197Z,1.20
2022-12-27T07:16:07.642Z,0.88
2022-12-27T07:18:34.623Z,1.25
2022-12-27T07:21:09.586Z,1.40
2022-12-27T07:23:36.635Z,0.95
2022-12-27T07:26:04.718Z,1.20
2022-12-27T07:28:32.788Z,1.02
2022-12-27T07:30:59.912Z,1.05
2022-12-27T07:33:26.414Z,0.70
2022-12-27T07:36:00.839Z,1.25
2022-12-27T07:38:27.690Z,0.93
2022-12-27T07:40:54.880Z,1.00
2022-12-27T07:43:21.276Z,0.98
2022-12-27T07:45:47.709Z,1.17
2022-12-27T07:48:14.176Z,1.10
2022-12-27T07:50:40.591Z,1.70
2022-12-27T07:53:07.120Z,1.40
2022-12-27T07:55:33.582Z,1.30
2022-12-27T07:57:59.984Z,1.33
2022-12-27T08:00:28.147Z,0.95
2022-12-27T08:02:54.671Z,1.13
2022-12-27T08:05:25.919Z,1.23
2022-12-27T08:07:54.384Z,1.30
2022-12-27T08:10:20.819Z,1.15
2022-12-27T08:12:47.236Z,1.38
2022-12-27T08:15:13.663Z,1.27
2022-12-27T08:17:40.095Z,1.20
2022-12-27T08:20:07.067Z,1.23
2022-12-27T08:22:33.491Z,1.50
2022-12-27T08:24:59.900Z,1.20
2022-12-27T08:27:26.343Z,1.00
2022-12-27T08:29:52.988Z,1.10
2022-12-27T08:32:19.473Z,1.70
2022-12-27T08:34:45.927Z,1.00
2022-12-27T08:37:12.367Z,1.88
2022-12-27T08:39:40.131Z,1.15
2022-12-27T08:42:06.775Z,1.40
2022-12-27T08:44:33.224Z,1.60
2022-12-27T08:46:59.654Z,1.23
2022-12-27T08:49:26.188Z,1.38
2022-12-27T08:51:52.623Z,1.17
2022-12-27T08:54:19.056Z,2.38
2022-12-27T08:56:45.526Z,1.50
2022-12-27T08:59:12.695Z,1.05
2022-12-27T09:01:39.275Z,1.65
2022-12-27T09:04:05.839Z,1.50
2022-12-27T09:06:32.346Z,0.90
2022-12-27T09:08:59.673Z,1.15
2022-12-27T09:11:30.321Z,1.25
2022-12-27T09:13:59.915Z,1.00
2022-12-27T09:16:27.583Z,1.52
2022-12-27T09:18:56.201Z,1.00
2022-12-27T09:21:25.189Z,2.00
2022-12-27T09:23:51.866Z,1.20
2022-12-27T09:26:21.223Z,1.10
2022-12-27T09:28:48.957Z,1.25
2022-12-27T09:31:17.170Z,2.03
2022-12-27T09:33:43.910Z,0.80
2022-12-27T09:36:21.653Z,1.20
2022-12-27T09:38:49.520Z,1.13
2022-12-27T09:42:11.821Z,1.42
2022-12-27T09:44:26.619Z,1.40
2022-12-27T09:47:31.583Z,1.40
2022-12-27T09:50:06.397Z,1.48
2022-12-27T09:52:40.057Z,1.05
2022-12-27T09:55:34.498Z,1.35
2022-12-27T09:58:18.864Z,1.33
2022-12-27T10:00:46.341Z,1.08
2022-12-27T10:03:13.234Z,1.23
2022-12-27T10:05:44.905Z,1.70
2022-12-27T10:11:09.275Z,1.10
2022-12-27T10:13:46.321Z,1.30
2022-12-27T10:16:12.830Z,1.30
2022-12-27T10:18:54.603Z,1.40
2022-12-27T10:21:24.421Z,1.05
2022-12-27T10:24:10.278Z,1.20
2022-12-27T10:26:37.549Z,0.80
2022-12-27T10:29:16.221Z,1.30
2022-12-27T10:31:43.579Z,0.98
2022-12-27T10:34:14.831Z,1.20
2022-12-27T10:36:42.880Z,0.90
2022-12-27T10:39:21.444Z,1.20
2022-12-27T10:42:30.275Z,0.98
2022-12-27T10:45:27.441Z,1.38
2022-12-27T10:47:56.054Z,2.00
2022-12-27T10:50:27.813Z,1.10
2022-12-27T10:55:36.192Z,1.13
2022-12-27T10:58:37.048Z,1.02
2022-12-27T11:01:03.563Z,1.17
2022-12-27T11:03:30.993Z,1.20
2022-12-27T11:06:03.037Z,1.48
2022-12-27T11:08:30.388Z,1.30
2022-12-27T11:11:13.382Z,2.28
2022-12-27T11:13:40.317Z,1.50
2022-12-27T11:16:16.907Z,1.00
2022-12-27T11:18:48.710Z,1.50
2022-12-27T11:21:25.656Z,1.30
2022-12-27T11:23:58.165Z,0.93
2022-12-27T11:26:29.636Z,0.80
2022-12-27T11:28:59.842Z,0.90
2022-12-27T11:31:31.507Z,0.90
2022-12-27T11:36:37.550Z,1.08
2022-12-27T11:39:04.828Z,1.33
2022-12-27T11:41:49.797Z,1.17
2022-12-27T11:44:23.888Z,1.40
2022-12-27T11:47:03.373Z,2.72
2022-12-27T11:49:40.218Z,2.72
2022-12-27T11:52:16.541Z,1.30
2022-12-27T11:55:17.484Z,2.70
2022-12-27T11:58:17.917Z,1.25
2022-12-27T12:00:52.797Z,1.23
2022-12-27T12:03:52.343Z,1.10
2022-12-27T12:07:03.292Z,1.42
2022-12-27T12:09:43.843Z,1.00
2022-12-27T12:12:37.798Z,1.02
2022-12-27T12:15:29.153Z,1.13
2022-12-27T12:18:26.274Z,0.82
2022-12-27T12:21:28.372Z,0.82
2022-12-27T12:24:22.846Z,1.00
2022-12-27T12:27:10.479Z,1.02
2022-12-27T12:30:23.842Z,1.00
2022-12-27T12:33:12.219Z,1.15
2022-12-27T12:36:09.535Z,1.20
2022-12-27T12:38:57.513Z,1.42
2022-12-27T12:41:42.300Z,1.08
2022-12-27T12:44:22.719Z,1.13
2022-12-27T12:47:03.672Z,1.20
2022-12-27T12:49:50.737Z,1.08
2022-12-27T12:52:25.251Z,1.42
2022-12-27T12:55:22.482Z,1.40
2022-12-27T12:58:11.373Z,1.40
2022-12-27T13:00:56.776Z,1.77
2022-12-27T13:03:56.456Z,1.33
2022-12-27T13:07:05.347Z,1.30
2022-12-27T13:10:02.054Z,1.30
2022-12-27T13:13:04.420Z,1.80
2022-12-27T13:16:01.345Z,1.50
2022-12-27T13:18:41.878Z,1.38
2022-12-27T13:21:29.880Z,1.70
2022-12-27T13:24:07.357Z,1.55
2022-12-27T13:26:47.772Z,1.48
2022-12-27T13:29:44.385Z,1.58
2022-12-27T13:32:44.269Z,1.95
2022-12-27T13:35:19.547Z,1.35
2022-12-27T13:37:57.536Z,1.42
2022-12-27T13:40:42.294Z,1.83
2022-12-27T13:43:51.862Z,2.10
2022-12-27T13:46:51.019Z,1.30
2022-12-27T13:49:55.089Z,1.40
2022-12-27T13:52:44.272Z,1.65
2022-12-27T13:55:32.997Z,1.40
2022-12-27T13:58:38.353Z,1.88
2022-12-27T14:01:30.083Z,1.55
2022-12-27T14:04:15.471Z,1.70
2022-12-27T14:07:12.715Z,1.25
2022-12-27T14:10:01.903Z,1.20
2022-12-27T14:12:48.718Z,1.40
2022-12-27T14:15:22.910Z,1.40
2022-12-27T14:17:59.432Z,2.03
2022-12-27T14:20:52.691Z,1.50
2022-12-27T14:24:05.643Z,1.73
2022-12-27T14:27:09.654Z,0.93
2022-12-27T14:30:13.566Z,1.38
2022-12-27T14:33:19.982Z,1.95
2022-12-27T14:36:23.918Z,1.20
2022-12-27T14:39:18.960Z,1.30
2022-12-27T14:42:14.836Z,1.50
2022-12-27T14:45:10.442Z,1.50
2022-12-27T14:47:49.288Z,1.42
2022-12-27T14:50:43.667Z,1.90
2022-12-27T14:53:38.016Z,1.63
2022-12-27T14:56:26.280Z,1.10
2022-12-27T14:58:57.623Z,1.20
2022-12-27T15:01:39.737Z,1.25
2022-12-27T15:04:41.615Z,1.58
2022-12-27T15:07:36.811Z,1.33
2022-12-27T15:10:31.807Z,1.27
2022-12-27T15:16:10.137Z,1.20
2022-12-27T15:18:48.865Z,1.13
2022-12-27T15:21:43.163Z,1.40
2022-12-27T15:24:48.765Z,1.00
2022-12-27T15:28:03.570Z,1.40
2022-12-27T15:30:58.104Z,1.50
2022-12-27T15:34:02.655Z,1.30
2022-12-27T15:36:44.756Z,1.27
2022-12-27T15:39:33.205Z,1.27
2022-12-27T15:42:21.272Z,1.40
2022-12-27T15:45:11.689Z,1.48
2022-12-27T15:50:20.233Z,1.50
2022-12-27T15:52:57.378Z,1.85
2022-12-27T15:56:03.130Z,1.38
2022-12-27T15:58:29.982Z,1.40
2022-12-27T16:01:23.898Z,1.08
2022-12-27T16:03:53.670Z,1.38
2022-12-27T16:06:35.625Z,1.27
2022-12-27T16:09:23.879Z,1.48
2022-12-27T16:11:58.380Z,1.60
2022-12-27T16:14:30.532Z,1.98
2022-12-27T16:17:21.895Z,1.38
2022-12-27T16:20:11.777Z,1.67
2022-12-27T16:22:41.248Z,2.10
2022-12-27T16:25:33.073Z,1.88
2022-12-27T16:28:07.596Z,1.98
2022-12-27T16:30:40.017Z,2.67
2022-12-27T16:33:21.630Z,1.75
2022-12-27T16:36:13.625Z,2.25
2022-12-27T16:39:11.510Z,1.75
2022-12-27T16:42:00.670Z,1.90
2022-12-27T16:44:33.165Z,2.25
2022-12-27T16:47:31.999Z,2.60
2022-12-27T16:50:01.237Z,2.42
2022-12-27T16:52:51.776Z,2.13
2022-12-27T16:55:43.265Z,1.85
2022-12-27T16:58:21.875Z,2.22
2022-12-27T17:00:50.672Z,2.20
2022-12-27T17:03:35.383Z,1.55
2022-12-27T17:06:32.353Z,1.75
2022-12-27T17:09:09.155Z,2.25
2022-12-27T17:11:41.756Z,1.88
2022-12-27T17:14:20.180Z,2.15
2022-12-27T17:16:58.632Z,1.55
2022-12-27T17:19:33.825Z,2.15
2022-12-27T17:22:03.599Z,2.30
2022-12-27T17:24:30.220Z,2.13
2022-12-27T17:26:59.571Z,1.90
2022-12-27T17:29:56.869Z,2.00
2022-12-27T17:32:50.334Z,1.95
2022-12-27T17:35:29.249Z,2.47
2022-12-27T17:38:17.301Z,2.15
2022-12-27T17:41:15.427Z,2.40
2022-12-27T17:44:22.997Z,2.40
2022-12-27T17:47:19.370Z,2.30
2022-12-27T17:49:47.009Z,2.17
2022-12-27T17:52:40.442Z,2.63
2022-12-27T17:55:42.064Z,1.98
2022-12-27T17:58:11.130Z,2.22
2022-12-27T18:00:53.088Z,3.00
2022-12-27T18:03:22.333Z,2.40
2022-12-27T18:10:27.392Z,1.95
2022-12-27T18:12:58.659Z,2.83
2022-12-27T18:15:28.468Z,2.97
2022-12-27T18:18:01.719Z,2.67
2022-12-27T18:20:28.345Z,2.35
2022-12-27T18:23:01.132Z,2.30
2022-12-27T18:25:31.421Z,2.00
2022-12-27T18:28:07.107Z,2.17
2022-12-27T18:30:41.894Z,2.08
2022-12-27T18:33:15.527Z,2.00
2022-12-27T18:35:51.043Z,2.00
2022-12-27T18:38:35.011Z,2.38
2022-12-27T18:41:11.145Z,2.45
2022-12-27T18:43:44.002Z,2.40
2022-12-27T18:46:18.332Z,2.65
2022-12-27T18:48:48.930Z,2.60
2022-12-27T18:51:47.560Z,2.67
2022-12-27T18:54:36.078Z,2.20
2022-12-27T18:57:05.615Z,1.83
2022-12-27T18:59:38.851Z,1.75
2022-12-27T19:02:39.585Z,1.63
2022-12-27T19:05:28.098Z,2.33
2022-12-27T19:08:09.143Z,2.03
2022-12-27T19:10:35.939Z,1.80
2022-12-27T19:13:02.914Z,2.10
2022-12-27T19:15:39.843Z,1.70
2022-12-27T19:18:18.787Z,1.77
2022-12-27T19:20:53.504Z,1.98
2022-12-27T19:23:31.162Z,1.70
2022-12-27T19:26:00.918Z,1.85
2022-12-27T19:28:29.972Z,1.70
2022-12-27T19:31:05.962Z,1.42
2022-12-27T19:33:35.436Z,1.75
2022-12-27T19:36:06.327Z,1.45
2022-12-27T19:38:33.507Z,1.65
2022-12-27T19:41:03.947Z,1.80
2022-12-27T19:43:37.453Z,1.85
2022-12-27T19:46:04.000Z,2.10
2022-12-27T19:48:30.568Z,2.05
2022-12-27T19:50:58.097Z,1.85
2022-12-27T19:53:31.147Z,2.40
2022-12-27T19:55:58.318Z,1.50
2022-12-27T19:58:27.425Z,1.50
2022-12-27T20:00:53.981Z,2.00
2022-12-27T20:03:20.580Z,1.70
2022-12-27T20:06:13.622Z,1.75
2022-12-27T20:08:37.968Z,1.60
2022-12-27T20:11:07.220Z,2.08
2022-12-27T20:13:34.253Z,2.15
2022-12-27T20:16:01.089Z,1.90
2022-12-27T20:18:27.509Z,1.90
2022-12-27T20:20:54.031Z,1.77
2022-12-27T20:23:20.507Z,2.20
2022-12-27T20:25:48.995Z,2.28
2022-12-27T20:28:17.517Z,1.67
2022-12-27T20:30:45.051Z,1.88
2022-12-27T20:33:12.060Z,1.95
2022-12-27T20:35:38.532Z,2.55
2022-12-27T20:38:05.424Z,1.80
2022-12-27T20:40:32.428Z,2.38
2022-12-27T20:42:59.076Z,2.55
2022-12-27T20:45:25.525Z,2.42
2022-12-27T20:47:51.948Z,1.80
2022-12-27T20:50:18.452Z,1.98
2022-12-27T20:52:44.863Z,2.67
2022-12-27T20:55:12.544Z,2.20
2022-12-27T20:57:39.342Z,2.78
2022-12-27T21:00:08.291Z,2.08
2022-12-27T21:02:35.255Z,2.05
2022-12-27T21:05:01.780Z,2.42
2022-12-27T21:07:28.270Z,2.28
2022-12-27T21:09:55.306Z,2.13
2022-12-27T21:12:21.699Z,1.60
2022-12-27T21:14:49.918Z,2.25
2022-12-27T21:17:17.285Z,2.15
2022-12-27T21:19:43.727Z,2.42
2022-12-27T21:22:10.139Z,2.30
2022-12-27T21:24:36.612Z,2.10
2022-12-27T21:27:03.241Z,2.15
2022-12-27T21:29:29.652Z,2.47
2022-12-27T21:31:56.106Z,2.25
2022-12-27T21:34:22.615Z,1.98
2022-12-27T21:36:52.237Z,2.38
2022-12-27T21:39:18.688Z,1.83
2022-12-27T21:41:45.346Z,2.40
2022-12-27T21:44:12.455Z,2.10
2022-12-27T21:46:41.530Z,2.00
2022-12-27T21:49:13.460Z,1.58
2022-12-27T21:51:41.565Z,1.50
2022-12-27T21:54:08.230Z,1.73
2022-12-27T21:56:34.879Z,1.70
2022-12-27T21:59:02.987Z,1.75
2022-12-27T22:01:51.562Z,1.83
2022-12-27T22:04:17.768Z,1.95
2022-12-27T22:06:47.253Z,2.05
2022-12-27T22:09:14.830Z,1.88
2022-12-27T22:11:41.295Z,1.70
2022-12-27T22:14:07.879Z,2.20
2022-12-27T22:16:39.080Z,1.33
2022-12-27T22:19:07.700Z,1.92
2022-12-27T22:21:35.326Z,2.00
2022-12-27T22:24:03.756Z,1.42
2022-12-27T22:26:32.779Z,2.10
2022-12-27T22:28:59.231Z,1.63
2022-12-27T22:31:30.279Z,1.80
2022-12-27T22:33:56.925Z,1.88
2022-12-27T22:36:25.358Z,1.40
2022-12-27T22:38:53.640Z,1.60
2022-12-27T22:41:25.927Z,1.77
2022-12-27T22:44:04.645Z,1.75
2022-12-27T22:46:58.451Z,1.90
2022-12-27T22:49:18.764Z,1.70
2022-12-27T22:51:45.187Z,1.58
2022-12-27T22:54:11.602Z,1.33
2022-12-27T22:56:40.601Z,1.92
2022-12-27T22:59:12.218Z,1.55
2022-12-27T23:01:40.652Z,1.40
2022-12-27T23:04:08.611Z,1.10
2022-12-27T23:06:36.072Z,1.75
2022-12-27T23:09:03.485Z,1.83
2022-12-27T23:11:32.457Z,1.98
2022-12-27T23:14:05.006Z,1.83
2022-12-27T23:16:40.057Z,1.08
2022-12-27T23:19:07.852Z,1.48
2022-12-27T23:21:35.088Z,2.00
2022-12-27T23:24:01.593Z,1.50
2022-12-27T23:26:28.371Z,1.20
2022-12-27T23:28:55.227Z,1.80
2022-12-27T23:31:23.046Z,1.80
2022-12-27T23:33:49.512Z,1.27
2022-12-27T23:36:15.931Z,1.58
2022-12-27T23:38:43.226Z,1.45
2022-12-27T23:41:14.919Z,1.38
2022-12-27T23:43:52.260Z,1.30
2022-12-27T23:46:28.509Z,1.83
2022-12-27T23:49:00.718Z,1.25
2022-12-27T23:51:28.450Z,1.20
2022-12-27T23:53:55.228Z,1.55
2022-12-27T23:56:24.334Z,1.60
2022-12-27T23:58:52.918Z,1.50
